Главная страница
METAR-TAF:

METAR-TAF

Аэропорты :

Vilhelmina, Швеция

широта: 64-34-44N, долгота: 016-50-00E, высота над уровнем моря: 347 м

Текущие метеонаблюдения

Эта сводка был подготовлена 36 минут назад, в 07:50 UTC
Ветер 5 Узел от восточно-юго-восточный
Температура -3°C
Влажность 93%
Давление 1023 hPa
Видимость 10 км и более

METAR: ESNV 190750Z AUTO 12005KT 9999 BKN009/// OVC025/// M03/M04 Q1023 RESG REFZUP

Время: 09:26 (08:26 UTC)


TAF: отсутствует

Метеонаблюдения и прогнозы для более 4000 аэропортов (сводки METAR и TAF).

Имеющиеся станции представлены на карте желтыми и красными точками.

Чтобы увидеть название станции, наведите на нее мышь.

Затем щелкните, чтобы увидеть метеонаблюдения и метеопрогнозы.

Управление картой: чтобы увеличить масштаб, щелкните зеленые кнопки с черным крестиком; чтобы уменьшить масштаб, щелкните зеленую кнопку с тире; для просмотра соседних карт щелкайте зеленые стрелки.


METAR-TAF: